Terminal Aerodrome Forecast
Issued by NWS Sterling, VA

Current Version | Previous Version | Text Only | Print | Product List | Glossary Off
Versions: 1 2 3 4 5 6 7 8 9 10 11 12 13 14 15 16 17 18 19 20 21 22

270
FTUS41 KLWX 201126
TAFIAD
TAF
KIAD 201126Z 2012/2118 33004KT P6SM SCT200
     FM201500 34007KT P6SM SCT130
     FM202000 27004KT P6SM BKN090
     FM210000 13004KT P6SM OVC060
     FM210400 14004KT 6SM -SHRA BR OVC060
     FM210900 00000KT 5SM BR OVC015
     FM211400 33006KT P6SM OVC025=

USA.gov is the U.S. government's official web portal to all federal, state and local government web resources and services.